Time;durP1;ratioP1;P1;durP2;ratioP2;P2;SDS_P1;SDS_P2;PMS_P1;PMS_P2;Temp;Humidity;BMP_temperature;BMP_pressure;BME280_temperature;BME280_humidity;BME280_pressure;Samples;Min_cycle;Max_cycle;Signal;HPM_P1;HPM_P2
2021/10/18 00:01:48;;;;;;;8.67;4.40;;;11.20;99.90;;;;;;5047692;22;20456;-51
2021/10/18 00:04:15;;;;;;;5.43;4.70;;;11.30;99.90;;;;;;5037475;28;20475;-49
2021/10/18 00:06:42;;;;;;;8.00;4.90;;;11.20;99.90;;;;;;5038212;28;20479;-51
2021/10/18 00:09:08;;;;;;;9.03;4.73;;;11.20;99.90;;;;;;5046040;22;20542;-52
2021/10/18 00:11:35;;;;;;;8.50;4.83;;;11.30;99.90;;;;;;5038454;28;20502;-48
2021/10/18 00:14:02;;;;;;;10.20;4.93;;;11.30;99.90;;;;;;5062266;22;20856;-49
2021/10/18 00:16:29;;;;;;;7.10;4.60;;;11.30;99.90;;;;;;5039667;28;20585;-48
2021/10/18 00:18:57;;;;;;;6.20;4.20;;;11.20;99.90;;;;;;5045535;22;20495;-50
2021/10/18 00:21:24;;;;;;;12.37;5.67;;;11.20;99.90;;;;;;5037886;28;20506;-48
2021/10/18 00:23:50;;;;;;;8.33;4.63;;;11.30;99.90;;;;;;5045566;22;20561;-54
2021/10/18 00:26:17;;;;;;;8.23;5.17;;;11.30;99.90;;;;;;5037671;28;20522;-51
2021/10/18 00:28:44;;;;;;;7.60;5.10;;;11.20;99.90;;;;;;5045315;22;20523;-52
2021/10/18 00:31:10;;;;;;;11.97;5.17;;;11.20;99.90;;;;;;5037755;28;20459;-54
2021/10/18 00:33:37;;;;;;;5.10;4.03;;;11.20;99.90;;;;;;5045311;22;20557;-48
2021/10/18 00:36:05;;;;;;;7.40;4.03;;;11.20;99.90;;;;;;5045024;22;20581;-47
2021/10/18 00:38:32;;;;;;;8.30;5.10;;;11.20;99.90;;;;;;5037269;28;20472;-53
2021/10/18 00:40:59;;;;;;;8.43;4.73;;;11.20;99.90;;;;;;5044999;22;20573;-52
2021/10/18 00:43:25;;;;;;;11.03;4.30;;;11.20;99.90;;;;;;5037187;28;20474;-49
2021/10/18 00:45:52;;;;;;;9.97;4.30;;;11.30;99.90;;;;;;5044946;22;20550;-53
2021/10/18 00:48:19;;;;;;;6.97;4.63;;;11.20;99.90;;;;;;5037135;28;20510;-50
2021/10/18 00:50:47;;;;;;;8.93;4.70;;;11.20;99.90;;;;;;5045378;22;20566;-51
2021/10/18 00:53:16;;;;;;;7.10;3.77;;;11.20;99.90;;;;;;5037419;28;20533;-50
2021/10/18 00:55:43;;;;;;;7.10;4.83;;;11.20;99.90;;;;;;5044370;22;20554;-51
2021/10/18 00:58:09;;;;;;;6.87;4.10;;;11.20;99.90;;;;;;5037084;28;20527;-50
2021/10/18 01:00:37;;;;;;;4.90;3.43;;;11.20;99.90;;;;;;5044667;22;20488;-48
2021/10/18 01:03:04;;;;;;;6.87;3.70;;;11.20;99.90;;;;;;5037079;28;20506;-47
2021/10/18 01:05:34;;;;;;;7.33;3.90;;;11.20;99.90;;;;;;5044333;22;20510;-52
2021/10/18 01:08:01;;;;;;;4.27;3.03;;;11.20;99.90;;;;;;5036656;28;20472;-50
2021/10/18 01:10:29;;;;;;;9.10;4.80;;;11.20;99.90;;;;;;5044285;22;20451;-51
2021/10/18 01:12:56;;;;;;;12.10;5.03;;;11.30;99.90;;;;;;5037049;28;20471;-50
2021/10/18 01:18:00;;;;;;;6.63;4.10;;;11.30;99.90;;;;;;5044784;22;20495;-48
2021/10/18 01:20:31;;;;;;;11.50;4.33;;;11.30;99.90;;;;;;5036977;28;20506;-48
2021/10/18 01:22:58;;;;;;;7.20;4.93;;;11.20;99.90;;;;;;5045291;22;20793;-49
2021/10/18 01:25:25;;;;;;;5.80;4.43;;;11.20;99.90;;;;;;5038618;28;20877;-52
2021/10/18 01:27:52;;;;;;;12.03;5.00;;;11.20;99.90;;;;;;5044430;22;20860;-50
2021/10/18 01:30:19;;;;;;;8.03;4.50;;;11.30;99.90;;;;;;5036867;28;20467;-49
2021/10/18 01:32:46;;;;;;;9.03;5.97;;;11.30;99.90;;;;;;5044248;22;20569;-50
2021/10/18 01:35:13;;;;;;;6.80;4.20;;;11.30;99.90;;;;;;5036528;28;20440;-53
2021/10/18 01:37:42;;;;;;;9.70;4.50;;;11.20;99.90;;;;;;5044097;22;20550;-51
2021/10/18 01:40:11;;;;;;;6.80;4.93;;;11.30;99.90;;;;;;5036592;28;20432;-51
2021/10/18 01:42:38;;;;;;;10.20;4.57;;;11.30;99.90;;;;;;5044360;22;20508;-53
2021/10/18 01:45:05;;;;;;;11.03;4.60;;;11.30;99.90;;;;;;5036617;28;20440;-50
2021/10/18 01:47:32;;;;;;;5.77;3.53;;;11.30;99.90;;;;;;5044185;22;20495;-49
2021/10/18 01:50:00;;;;;;;12.07;3.97;;;11.20;99.90;;;;;;5036467;28;20444;-51
2021/10/18 01:52:27;;;;;;;6.93;4.20;;;11.20;99.90;;;;;;5040000;22;20493;-50
2021/10/18 01:54:55;;;;;;;8.63;4.40;;;11.20;99.90;;;;;;5020052;28;20448;-49
2021/10/18 01:57:21;;;;;;;6.80;4.20;;;11.20;99.90;;;;;;5030283;22;20526;-51
2021/10/18 01:59:48;;;;;;;12.37;4.77;;;11.20;99.90;;;;;;5039787;28;20522;-48
2021/10/18 02:04:41;;;;;;;12.50;5.10;;;11.30;99.90;;;;;;5006720;22;20516;-52
2021/10/18 02:07:07;;;;;;;6.30;4.27;;;11.30;99.90;;;;;;5001082;28;20508;-53
2021/10/18 02:09:34;;;;;;;7.00;4.17;;;11.30;99.90;;;;;;5032056;23;20940;-50
2021/10/18 02:12:02;;;;;;;5.03;4.50;;;11.30;99.90;;;;;;5020318;28;20485;-52
2021/10/18 02:14:29;;;;;;;4.60;4.00;;;11.30;99.90;;;;;;5027861;22;20492;-49
2021/10/18 02:16:55;;;;;;;11.27;4.73;;;11.40;99.90;;;;;;5020607;28;20493;-50
2021/10/18 02:19:22;;;;;;;7.93;4.40;;;11.40;99.90;;;;;;5028040;23;20489;-51
2021/10/18 02:21:48;;;;;;;7.57;4.10;;;11.40;99.90;;;;;;5020428;28;20511;-50
2021/10/18 02:24:15;;;;;;;7.70;4.67;;;11.40;99.90;;;;;;5028332;22;20806;-47
2021/10/18 02:26:42;;;;;;;6.87;3.50;;;11.40;99.90;;;;;;5020835;28;20429;-51
2021/10/18 02:31:39;;;;;;;5.37;3.37;;;11.40;99.90;;;;;;5027408;22;20861;-55
2021/10/18 02:34:06;;;;;;;7.93;4.30;;;11.40;99.90;;;;;;5021744;28;20469;-52
2021/10/18 02:36:32;;;;;;;5.33;4.10;;;11.40;99.90;;;;;;5027569;23;20495;-48
2021/10/18 02:38:59;;;;;;;3.47;3.03;;;11.40;99.90;;;;;;5020117;28;20473;-48
2021/10/18 02:41:26;;;;;;;9.87;4.27;;;11.40;99.90;;;;;;5026914;22;20806;-50
2021/10/18 02:43:53;;;;;;;9.50;4.03;;;11.40;99.90;;;;;;5019512;28;20491;-48
2021/10/18 02:46:20;;;;;;;5.17;3.80;;;11.40;99.90;;;;;;5027171;23;20547;-47
2021/10/18 02:48:48;;;;;;;8.57;3.33;;;11.40;99.90;;;;;;5019836;28;20473;-50
2021/10/18 02:51:15;;;;;;;4.23;3.53;;;11.40;99.90;;;;;;5027183;23;20547;-45
2021/10/18 02:53:41;;;;;;;5.20;3.40;;;11.30;99.90;;;;;;5019815;28;20468;-49
2021/10/18 02:56:08;;;;;;;6.53;3.60;;;11.30;99.90;;;;;;5026971;23;20562;-43
2021/10/18 02:58:35;;;;;;;4.40;3.80;;;11.30;99.90;;;;;;5019201;28;20480;-47
2021/10/18 03:01:01;;;;;;;8.53;3.80;;;11.30;99.90;;;;;;5026668;23;20539;-48
2021/10/18 03:03:28;;;;;;;10.50;4.33;;;11.30;99.90;;;;;;5019164;28;20441;-52
2021/10/18 03:05:56;;;;;;;6.53;3.90;;;11.30;99.90;;;;;;5026364;22;20426;-46
2021/10/18 03:08:23;;;;;;;6.53;4.53;;;11.30;99.90;;;;;;5019290;28;20433;-50
2021/10/18 03:13:17;;;;;;;9.83;4.33;;;11.30;99.90;;;;;;5024182;22;20485;-50
2021/10/18 03:15:44;;;;;;;6.23;4.00;;;11.30;99.90;;;;;;5019181;28;20461;-51
2021/10/18 03:18:11;;;;;;;13.50;4.27;;;11.30;99.90;;;;;;5044261;23;20550;-53
2021/10/18 03:20:38;;;;;;;4.53;3.20;;;11.30;99.90;;;;;;5039296;28;20448;-47
2021/10/18 03:23:06;;;;;;;8.37;4.33;;;11.30;99.90;;;;;;5046256;22;20488;-50
2021/10/18 03:25:35;;;;;;;4.93;3.30;;;11.40;99.90;;;;;;5038666;28;20483;-46
2021/10/18 03:28:01;;;;;;;6.83;3.37;;;11.40;99.90;;;;;;5057749;22;20501;-51
2021/10/18 03:30:28;;;;;;;4.20;2.90;;;11.40;99.90;;;;;;5058934;28;20501;-48
2021/10/18 03:32:55;;;;;;;13.10;5.20;;;11.40;99.90;;;;;;5055133;22;20487;-51
2021/10/18 03:35:22;;;;;;;8.17;4.70;;;11.40;99.90;;;;;;5038993;28;20519;-52
2021/10/18 03:37:49;;;;;;;5.20;3.90;;;11.40;99.90;;;;;;5046785;22;20526;-57
2021/10/18 03:40:17;;;;;;;3.60;3.30;;;11.40;99.90;;;;;;5022005;28;20472;-48
2021/10/18 03:42:44;;;;;;;5.20;3.67;;;11.40;99.90;;;;;;5047367;22;20484;-49
2021/10/18 03:45:13;;;;;;;7.23;4.30;;;11.40;99.90;;;;;;5046769;22;20499;-49
2021/10/18 03:47:40;;;;;;;7.80;4.37;;;11.40;99.90;;;;;;5038465;28;20466;-52
2021/10/18 03:50:08;;;;;;;7.83;4.10;;;11.40;99.90;;;;;;5045917;22;20503;-53
2021/10/18 03:52:35;;;;;;;7.23;4.10;;;11.40;99.90;;;;;;5038530;28;20452;-49
2021/10/18 03:55:02;;;;;;;12.07;3.63;;;11.40;99.90;;;;;;5046177;22;20879;-49
2021/10/18 03:57:30;;;;;;;4.30;3.37;;;11.40;99.90;;;;;;5038064;28;20964;-48
2021/10/18 03:59:56;;;;;;;9.33;4.07;;;11.40;99.90;;;;;;5045670;22;20523;-53
2021/10/18 04:02:23;;;;;;;5.43;3.70;;;11.40;99.90;;;;;;5037869;28;20476;-51
2021/10/18 04:04:49;;;;;;;4.70;3.43;;;11.40;99.90;;;;;;5046082;22;20484;-48
2021/10/18 04:07:16;;;;;;;4.13;3.70;;;11.40;99.90;;;;;;5038139;28;20456;-49
2021/10/18 04:09:45;;;;;;;5.40;2.80;;;11.50;99.90;;;;;;5045617;22;20492;-52
2021/10/18 04:12:12;;;;;;;12.00;3.70;;;11.40;99.90;;;;;;5037699;28;20519;-52
2021/10/18 04:14:40;;;;;;;6.80;3.53;;;11.40;99.90;;;;;;5045963;22;20480;-48
2021/10/18 04:17:06;;;;;;;9.27;3.57;;;11.40;99.90;;;;;;5037244;28;20999;-53
2021/10/18 04:19:33;;;;;;;3.90;3.20;;;11.40;99.90;;;;;;5045588;22;20459;-48
2021/10/18 04:22:00;;;;;;;9.07;3.93;;;11.40;99.90;;;;;;5037724;28;20413;-50
2021/10/18 04:24:27;;;;;;;4.50;2.90;;;11.40;99.90;;;;;;5038124;28;20468;-47
2021/10/18 04:26:53;;;;;;;8.73;3.80;;;11.40;99.90;;;;;;5046939;22;20553;-52
2021/10/18 04:29:20;;;;;;;6.30;3.70;;;11.40;99.90;;;;;;5038030;28;20467;-49
2021/10/18 04:31:48;;;;;;;5.10;3.67;;;11.40;99.90;;;;;;5045172;22;20491;-48
2021/10/18 04:34:15;;;;;;;7.40;3.50;;;11.40;99.90;;;;;;5037793;28;20453;-49
2021/10/18 04:36:41;;;;;;;5.40;3.40;;;11.40;99.90;;;;;;5045262;22;20882;-45
2021/10/18 04:39:08;;;;;;;4.50;3.67;;;11.50;99.90;;;;;;5037941;28;20444;-46
2021/10/18 04:41:35;;;;;;;6.63;4.73;;;11.50;99.90;;;;;;5045248;22;20514;-45
2021/10/18 04:44:01;;;;;;;3.97;3.00;;;11.50;99.90;;;;;;5037455;28;20440;-47
2021/10/18 04:46:28;;;;;;;6.43;3.70;;;11.50;99.90;;;;;;5045622;22;20618;-50
2021/10/18 04:48:56;;;;;;;4.40;3.00;;;11.50;99.90;;;;;;5038357;28;20541;-51
2021/10/18 04:51:23;;;;;;;3.53;2.83;;;11.40;99.90;;;;;;5045226;22;20488;-47
2021/10/18 04:53:49;;;;;;;8.07;3.37;;;11.50;99.90;;;;;;5037805;28;20449;-51
2021/10/18 04:56:16;;;;;;;4.57;2.80;;;11.50;99.90;;;;;;5045360;22;20475;-52
2021/10/18 04:58:43;;;;;;;4.33;3.40;;;11.40;99.90;;;;;;5037479;28;20491;-50
2021/10/18 05:01:10;;;;;;;5.90;3.30;;;11.40;99.90;;;;;;5044689;22;20480;-51
2021/10/18 05:03:36;;;;;;;5.73;3.17;;;11.40;99.90;;;;;;5045043;22;20526;-49
2021/10/18 05:06:04;;;;;;;4.63;3.60;;;11.40;99.90;;;;;;5037403;28;20510;-52
2021/10/18 05:08:31;;;;;;;3.87;3.33;;;11.30;99.90;;;;;;5044492;22;20507;-51
2021/10/18 05:10:58;;;;;;;5.57;2.80;;;11.30;99.90;;;;;;5038461;28;20774;-48
2021/10/18 05:13:25;;;;;;;3.40;3.10;;;11.20;99.90;;;;;;5045285;22;20546;-56
2021/10/18 05:15:53;;;;;;;4.43;3.40;;;11.20;99.90;;;;;;5036581;28;20530;-53
2021/10/18 05:18:20;;;;;;;5.40;3.00;;;11.20;99.90;;;;;;5044290;22;20495;-53
2021/10/18 05:20:47;;;;;;;4.67;2.73;;;11.10;99.90;;;;;;5036562;28;20530;-48
2021/10/18 05:23:15;;;;;;;3.70;3.17;;;11.10;99.90;;;;;;5044325;22;20480;-49
2021/10/18 05:25:42;;;;;;;2.90;2.63;;;11.00;99.90;;;;;;5036887;28;20472;-50
2021/10/18 05:28:09;;;;;;;3.73;2.87;;;11.00;99.90;;;;;;5043542;22;20457;-47
2021/10/18 05:30:36;;;;;;;5.90;2.70;;;11.00;99.90;;;;;;5037452;28;20478;-47
2021/10/18 05:35:43;;;;;;;3.63;3.13;;;11.00;99.90;;;;;;5044214;22;20484;-48
2021/10/18 05:38:10;;;;;;;6.23;2.97;;;11.00;99.90;;;;;;5036567;28;20483;-50
2021/10/18 05:40:38;;;;;;;10.70;3.80;;;11.10;99.90;;;;;;5043722;22;20487;-49
2021/10/18 05:43:04;;;;;;;4.30;3.33;;;11.10;99.90;;;;;;5036726;28;20452;-49
2021/10/18 05:45:33;;;;;;;8.63;3.37;;;11.10;99.90;;;;;;5044333;22;20484;-49
2021/10/18 05:48:01;;;;;;;5.50;3.20;;;11.10;99.90;;;;;;5036749;28;20447;-50
2021/10/18 05:50:29;;;;;;;5.57;3.57;;;11.00;99.90;;;;;;5044232;22;20561;-50
2021/10/18 05:52:56;;;;;;;5.00;3.63;;;10.90;99.90;;;;;;5036951;28;20448;-51
2021/10/18 05:55:24;;;;;;;4.93;3.90;;;10.90;99.90;;;;;;5051900;22;20972;-48
2021/10/18 05:57:53;;;;;;;6.17;3.30;;;10.80;99.90;;;;;;5037529;28;20491;-50
2021/10/18 06:00:21;;;;;;;8.00;3.87;;;10.80;99.90;;;;;;5044368;22;20480;-49
2021/10/18 06:02:49;;;;;;;3.30;3.00;;;10.80;99.90;;;;;;5036951;28;20432;-50
2021/10/18 06:07:41;;;;;;;5.90;3.40;;;10.70;99.90;;;;;;5042138;22;20534;-46
2021/10/18 06:10:10;;;;;;;4.70;3.17;;;10.70;99.90;;;;;;5036006;28;20229;-48
2021/10/18 06:12:37;;;;;;;4.13;3.70;;;10.70;99.90;;;;;;5044171;22;20488;-53
2021/10/18 06:15:07;;;;;;;8.30;3.87;;;10.70;99.90;;;;;;5035995;28;20448;-53
2021/10/18 06:17:33;;;;;;;3.87;3.50;;;10.70;99.90;;;;;;5043768;22;20488;-49
2021/10/18 06:20:00;;;;;;;4.10;3.30;;;10.70;99.90;;;;;;5036016;28;20455;-52
2021/10/18 06:22:27;;;;;;;5.17;3.23;;;10.80;99.90;;;;;;5043947;22;20565;-50
2021/10/18 06:24:54;;;;;;;5.60;3.80;;;10.80;99.90;;;;;;5035929;28;20444;-53
2021/10/18 06:27:23;;;;;;;3.60;3.23;;;10.80;99.90;;;;;;5043471;22;20553;-48
2021/10/18 06:29:50;;;;;;;10.73;4.07;;;10.80;99.90;;;;;;5036545;28;20483;-49
2021/10/18 06:32:18;;;;;;;5.07;3.40;;;10.90;99.90;;;;;;5045485;22;20487;-51
2021/10/18 06:34:45;;;;;;;6.23;3.60;;;10.90;99.90;;;;;;5036751;28;20448;-48
2021/10/18 06:37:11;;;;;;;5.27;4.23;;;10.90;99.90;;;;;;5043667;22;20875;-46
2021/10/18 06:39:38;;;;;;;8.37;4.13;;;10.90;99.90;;;;;;5046215;22;20483;-47
2021/10/18 06:42:05;;;;;;;6.23;3.90;;;11.00;99.90;;;;;;5039573;28;20448;-48
2021/10/18 06:44:32;;;;;;;3.93;3.17;;;11.00;99.90;;;;;;5047388;22;20491;-52
2021/10/18 06:46:58;;;;;;;5.77;2.67;;;11.10;99.90;;;;;;5039568;28;20451;-48
2021/10/18 06:49:27;;;;;;;8.00;2.80;;;11.10;99.90;;;;;;5047763;22;20868;-51
2021/10/18 06:51:55;;;;;;;5.87;2.83;;;11.20;99.90;;;;;;5040325;28;20836;-51
2021/10/18 06:54:22;;;;;;;4.23;2.93;;;11.30;99.90;;;;;;5047920;22;20495;-52
2021/10/18 06:56:51;;;;;;;5.93;3.20;;;11.30;99.90;;;;;;5040619;28;20482;-49
2021/10/18 06:59:18;;;;;;;7.80;3.70;;;11.40;99.90;;;;;;5047294;22;20997;-48
2021/10/18 07:01:44;;;;;;;3.27;2.90;;;11.50;99.90;;;;;;5039883;28;20455;-49
2021/10/18 07:04:12;;;;;;;3.73;3.13;;;11.60;99.90;;;;;;5047045;22;20491;-48
2021/10/18 07:06:40;;;;;;;5.87;4.33;;;11.60;99.90;;;;;;5040908;28;20870;-48
2021/10/18 07:09:07;;;;;;;5.60;3.20;;;11.70;99.90;;;;;;5043490;22;20974;-45
2021/10/18 07:11:34;;;;;;;5.30;3.20;;;11.70;99.90;;;;;;5020896;28;20531;-48
2021/10/18 07:14:00;;;;;;;8.27;3.40;;;11.70;99.90;;;;;;5029667;23;20441;-53
2021/10/18 07:16:27;;;;;;;11.53;3.43;;;11.70;99.90;;;;;;5039250;28;20468;-54
2021/10/18 07:21:20;;;;;;;5.03;2.93;;;12.00;99.90;;;;;;5043835;22;20480;-52
2021/10/18 07:23:51;;;;;;;5.20;3.20;;;12.10;99.90;;;;;;5038615;28;20474;-49
2021/10/18 07:26:18;;;;;;;7.53;3.53;;;12.20;99.90;;;;;;5053835;22;20499;-52
2021/10/18 07:28:45;;;;;;;7.87;3.80;;;12.30;99.90;;;;;;5038671;28;20440;-49
2021/10/18 07:31:11;;;;;;;4.70;3.37;;;12.40;99.90;;;;;;5045641;22;20480;-53
2021/10/18 07:33:38;;;;;;;4.13;2.93;;;12.50;99.90;;;;;;5038106;28;20456;-50
2021/10/18 07:36:09;;;;;;;7.33;3.30;;;12.60;99.90;;;;;;5045939;22;20820;-52
2021/10/18 07:38:36;;;;;;;8.93;3.83;;;12.70;99.90;;;;;;5038272;28;20468;-54
2021/10/18 07:41:04;;;;;;;3.83;3.00;;;12.80;99.90;;;;;;5045864;22;20846;-50
2021/10/18 07:43:31;;;;;;;11.53;4.20;;;12.80;99.90;;;;;;5038080;28;20436;-50
2021/10/18 07:45:58;;;;;;;5.50;3.13;;;12.90;99.90;;;;;;5046309;22;20476;-51
2021/10/18 07:48:24;;;;;;;5.40;3.30;;;13.00;99.90;;;;;;5037753;28;20803;-47
2021/10/18 07:50:51;;;;;;;3.00;2.70;;;13.00;99.90;;;;;;5037066;28;20436;-50
2021/10/18 07:53:18;;;;;;;3.77;3.20;;;13.20;99.90;;;;;;5046590;22;20488;-53
2021/10/18 07:55:45;;;;;;;4.90;3.53;;;13.30;99.90;;;;;;5038011;28;20444;-51
2021/10/18 07:58:13;;;;;;;3.50;2.80;;;13.30;99.90;;;;;;5045524;22;20573;-48
2021/10/18 08:00:40;;;;;;;3.33;2.20;;;13.30;99.90;;;;;;5037436;28;20464;-47
2021/10/18 08:03:06;;;;;;;4.30;2.80;;;13.40;99.90;;;;;;5045057;22;20558;-50
2021/10/18 08:05:33;;;;;;;3.77;2.83;;;13.30;99.90;;;;;;5037578;28;20475;-49
2021/10/18 08:08:00;;;;;;;7.30;3.30;;;13.40;99.90;;;;;;5044906;22;20483;-48
2021/10/18 08:10:27;;;;;;;4.37;3.40;;;13.40;99.90;;;;;;5037416;28;20955;-48
2021/10/18 08:12:55;;;;;;;6.33;2.30;;;13.50;99.90;;;;;;5045104;22;20496;-52
2021/10/18 08:15:24;;;;;;;4.80;3.10;;;13.50;99.90;;;;;;5039086;28;20502;-51
2021/10/18 08:17:52;;;;;;;4.20;2.60;;;13.60;99.90;;;;;;5044952;22;20526;-50
2021/10/18 08:20:19;;;;;;;3.20;2.90;;;13.60;99.90;;;;;;5037201;28;20828;-54
2021/10/18 08:22:47;;;;;;;3.10;2.73;;;13.60;99.90;;;;;;5044714;22;20484;-50
2021/10/18 08:25:14;;;;;;;4.73;2.97;;;13.60;99.90;;;;;;5036609;28;20428;-51
2021/10/18 08:27:42;;;;;;;3.90;3.10;;;13.70;99.90;;;;;;5057080;22;20495;-48
2021/10/18 08:30:10;;;;;;;3.93;2.67;;;13.80;99.90;;;;;;5036354;28;20460;-49
2021/10/18 08:35:11;;;;;;;5.13;3.10;;;13.70;99.90;;;;;;5125198;22;20513;-55
2021/10/18 08:40:29;;;;;;;3.50;2.50;;;13.70;99.90;;;;;;5094197;22;20518;-53
2021/10/18 08:42:59;;;;;;;3.20;2.43;;;13.70;99.90;;;;;;5056920;28;20435;-51
2021/10/18 08:45:26;;;;;;;4.50;2.90;;;13.80;99.90;;;;;;5059039;22;20498;-47
2021/10/18 08:47:54;;;;;;;5.67;2.60;;;13.80;99.90;;;;;;5029531;28;20437;-47
2021/10/18 08:50:26;;;;;;;7.70;2.93;;;13.90;99.90;;;;;;5049980;22;21229;-48
2021/10/18 08:52:53;;;;;;;3.20;2.50;;;14.00;99.90;;;;;;5050607;28;20507;-48
2021/10/18 08:55:19;;;;;;;4.30;2.77;;;14.10;99.90;;;;;;5047417;22;20492;-48
2021/10/18 08:57:47;;;;;;;2.27;2.07;;;14.20;99.90;;;;;;5038157;28;20558;-47
2021/10/18 09:00:37;;;;;;;3.20;2.80;;;14.50;99.90;;;;;;5052944;22;20480;-45
2021/10/18 09:03:15;;;;;;;5.50;2.80;;;14.70;99.90;;;;;;5038624;28;20464;-51
2021/10/18 09:05:44;;;;;;;4.20;2.70;;;14.90;99.90;;;;;;5052771;22;20571;-50
2021/10/18 09:08:27;;;;;;;3.63;2.93;;;15.10;99.90;;;;;;5057715;28;20459;-48
2021/10/18 09:11:06;;;;;;;4.90;2.03;;;15.30;99.90;;;;;;5062620;22;20544;-48
2021/10/18 09:13:34;;;;;;;2.40;2.20;;;15.40;99.90;;;;;;5047765;28;20495;-52
2021/10/18 09:16:01;;;;;;;6.80;2.03;;;15.50;99.90;;;;;;5047952;22;20500;-50
2021/10/18 09:18:28;;;;;;;4.90;2.23;;;15.60;99.90;;;;;;5028049;28;20801;-53
2021/10/18 09:20:56;;;;;;;3.33;2.50;;;15.80;99.90;;;;;;5038239;22;20477;-45
2021/10/18 09:23:25;;;;;;;2.50;2.30;;;15.80;99.90;;;;;;5018731;28;20857;-48
2021/10/18 09:25:57;;;;;;;5.20;2.63;;;15.80;99.90;;;;;;5012770;23;20493;-48
2021/10/18 09:28:25;;;;;;;2.70;2.40;;;15.80;99.90;;;;;;5061521;28;20538;-49
2021/10/18 09:30:52;;;;;;;3.60;2.23;;;15.90;99.90;;;;;;5063327;22;20778;-49
2021/10/18 09:33:23;;;;;;;3.40;2.47;;;15.90;99.90;;;;;;5031874;28;20463;-47
2021/10/18 09:35:51;;;;;;;3.00;2.70;;;16.00;99.90;;;;;;5020954;28;20463;-51
2021/10/18 09:38:21;;;;;;;4.77;2.27;;;16.30;99.90;;;;;;5047409;23;20495;-52
2021/10/18 09:40:49;;;;;;;3.00;2.00;;;16.60;99.90;;;;;;5044530;28;20474;-51
2021/10/18 09:43:22;;;;;;;4.07;1.97;;;16.90;99.90;;;;;;5037603;23;20586;-50
2021/10/18 09:46:05;;;;;;;5.47;2.10;;;17.20;99.90;;;;;;5025458;28;20449;-49
2021/10/18 10:53:00;;;;;;;1.93;1.67;;;16.90;99.90;;;;;;5003425;28;20421;-48
2021/10/18 10:55:28;;;;;;;2.47;1.80;;;16.60;99.90;;;;;;5014048;22;20865;-52
2021/10/18 10:57:58;;;;;;;4.30;2.00;;;16.50;99.90;;;;;;5003395;28;20972;-51
2021/10/18 11:00:38;;;;;;;2.00;1.83;;;16.30;99.90;;;;;;5033260;23;20442;-46
2021/10/18 11:03:40;;;;;;;2.57;1.80;;;16.20;99.90;;;;;;5008418;28;20434;-46
2021/10/18 11:06:09;;;;;;;7.43;2.10;;;16.10;99.90;;;;;;5015319;23;20502;-50
2021/10/18 11:08:38;;;;;;;4.50;2.33;;;16.10;99.90;;;;;;5003306;28;20485;-53
2021/10/18 11:11:12;;;;;;;5.77;2.00;;;16.20;99.90;;;;;;5027151;22;20492;-46
2021/10/18 11:13:51;;;;;;;3.30;1.70;;;16.40;99.90;;;;;;5018783;28;20476;-48
2021/10/18 11:16:29;;;;;;;2.80;1.60;;;16.50;99.90;;;;;;5027357;22;20496;-49
2021/10/18 11:19:01;;;;;;;1.80;1.60;;;16.70;99.90;;;;;;5018891;28;20503;-50
2021/10/18 11:21:36;;;;;;;3.03;2.20;;;17.00;99.90;;;;;;5026720;22;20546;-49
2021/10/18 11:24:12;;;;;;;2.70;1.80;;;17.10;99.90;;;;;;5019190;28;20468;-49
2021/10/18 11:26:44;;;;;;;2.80;1.77;;;17.20;99.90;;;;;;5025775;22;20497;-52
2021/10/18 11:29:13;;;;;;;3.33;1.80;;;17.30;99.90;;;;;;5019129;28;20555;-46
2021/10/18 11:31:42;;;;;;;3.23;1.63;;;17.30;99.90;;;;;;5027193;23;20811;-48
2021/10/18 11:34:20;;;;;;;2.10;1.63;;;17.20;99.90;;;;;;5018770;28;20477;-50
2021/10/18 11:36:53;;;;;;;2.30;1.40;;;17.10;99.90;;;;;;5020331;22;20462;-46
2021/10/18 11:39:31;;;;;;;2.40;1.70;;;17.10;99.90;;;;;;5023516;22;20842;-52
2021/10/18 11:42:11;;;;;;;5.50;2.10;;;16.90;99.90;;;;;;5026878;22;20443;-49
2021/10/18 11:44:57;;;;;;;3.70;1.77;;;16.70;99.90;;;;;;5016891;23;20524;-48
2021/10/18 11:50:36;;;;;;;2.30;1.40;;;16.50;99.90;;;;;;5025204;22;20976;-49
2021/10/18 11:53:08;;;;;;;1.83;1.20;;;16.50;99.90;;;;;;5035602;22;20493;-39
2021/10/18 11:55:46;;;;;;;2.93;1.83;;;16.50;99.90;;;;;;5019429;28;20434;-55
2021/10/18 12:00:59;;;;;;;2.07;1.50;;;16.80;99.90;;;;;;5373520;22;20547;-50
2021/10/18 12:03:28;;;;;;;4.30;1.70;;;16.90;99.90;;;;;;5042803;22;20567;-45
2021/10/18 12:05:57;;;;;;;3.00;1.90;;;17.00;99.90;;;;;;5013228;28;20891;-48
2021/10/18 12:08:28;;;;;;;1.30;1.00;;;17.10;99.90;;;;;;5037131;23;20500;-51
2021/10/18 12:10:55;;;;;;;2.43;1.50;;;17.10;99.90;;;;;;5009625;28;20458;-51
2021/10/18 12:13:23;;;;;;;4.30;1.50;;;17.00;99.70;;;;;;5021611;22;20454;-44
2021/10/18 12:16:00;;;;;;;4.97;2.30;;;17.00;99.60;;;;;;5021665;28;20469;-49
2021/10/18 12:18:34;;;;;;;1.30;1.13;;;17.00;99.70;;;;;;5019954;23;20437;-50
2021/10/18 12:21:03;;;;;;;3.23;1.70;;;17.00;99.90;;;;;;5004479;28;20470;-50
2021/10/18 12:23:32;;;;;;;2.13;1.30;;;17.00;99.90;;;;;;5005745;23;20520;-48
2021/10/18 12:26:05;;;;;;;2.40;1.47;;;17.10;99.90;;;;;;5017191;28;20473;-48
2021/10/18 12:31:01;;;;;;;2.13;1.93;;;17.40;99.90;;;;;;5022701;22;20491;-48
2021/10/18 12:33:40;;;;;;;1.73;1.30;;;17.60;99.90;;;;;;5017720;28;20449;-52
2021/10/18 12:36:21;;;;;;;1.57;1.40;;;17.60;99.90;;;;;;5025048;22;20481;-47
2021/10/18 12:38:48;;;;;;;1.93;1.40;;;17.70;99.90;;;;;;5016594;28;20555;-47
2021/10/18 12:41:17;;;;;;;2.40;1.40;;;17.70;99.60;;;;;;5023201;22;20493;-49
2021/10/18 12:43:44;;;;;;;2.67;1.40;;;17.70;99.60;;;;;;5010450;28;20454;-52
2021/10/18 12:46:19;;;;;;;1.40;1.13;;;17.70;99.50;;;;;;5016530;23;20509;-51
2021/10/18 12:48:58;;;;;;;2.37;1.40;;;17.70;99.20;;;;;;5016422;28;20437;-53
2021/10/18 12:51:35;;;;;;;1.47;1.37;;;17.80;99.60;;;;;;5032788;23;20493;-50
2021/10/18 12:54:26;;;;;;;2.43;1.87;;;17.80;99.90;;;;;;5001664;28;20505;-47
2021/10/18 12:57:04;;;;;;;2.67;1.80;;;17.70;99.40;;;;;;5006341;22;20564;-48
2021/10/18 12:59:33;;;;;;;2.80;1.47;;;17.70;99.10;;;;;;5001161;28;20465;-48
2021/10/18 13:02:21;;;;;;;2.50;1.37;;;17.70;98.70;;;;;;5064767;23;20497;-51
2021/10/18 13:05:18;;;;;;;1.60;1.40;;;17.60;99.10;;;;;;5061340;28;20776;-47
2021/10/18 13:07:50;;;;;;;1.43;1.30;;;17.60;99.90;;;;;;5048185;28;20438;-48
2021/10/18 13:10:17;;;;;;;2.07;1.63;;;17.70;99.90;;;;;;5046989;28;20468;-49
2021/10/18 13:12:45;;;;;;;2.40;1.67;;;17.70;99.80;;;;;;5047727;28;20448;-44
2021/10/18 13:15:14;;;;;;;2.07;1.40;;;17.80;99.90;;;;;;5067814;28;20471;-48
2021/10/18 13:17:41;;;;;;;1.50;1.40;;;17.90;99.40;;;;;;5057730;28;20497;-52
2021/10/18 13:20:09;;;;;;;3.33;1.60;;;17.90;99.20;;;;;;5056261;28;20482;-52
2021/10/18 13:22:37;;;;;;;2.07;1.50;;;17.80;99.50;;;;;;5056558;28;20514;-49
2021/10/18 13:25:05;;;;;;;1.60;1.20;;;17.80;99.50;;;;;;5056796;28;20452;-52
2021/10/18 13:27:32;;;;;;;2.53;1.30;;;17.70;98.00;;;;;;5057353;28;20484;-54
2021/10/18 13:29:59;;;;;;;3.70;1.60;;;17.70;97.00;;;;;;5056694;28;20439;-48
2021/10/18 13:32:26;;;;;;;1.40;1.17;;;17.60;97.00;;;;;;5056637;28;20466;-46
2021/10/18 13:34:52;;;;;;;1.50;1.23;;;17.60;97.10;;;;;;5056625;28;20505;-47
2021/10/18 13:37:19;;;;;;;2.03;1.13;;;17.50;96.60;;;;;;5056627;28;20450;-50
2021/10/18 13:39:47;;;;;;;1.20;1.00;;;17.50;96.50;;;;;;5056272;28;20482;-50
2021/10/18 13:42:13;;;;;;;4.93;2.57;;;17.40;97.00;;;;;;5056120;28;20516;-46
2021/10/18 13:44:40;;;;;;;3.90;1.83;;;17.40;97.10;;;;;;5056473;28;20444;-49
2021/10/18 13:47:07;;;;;;;10.57;6.47;;;17.40;98.20;;;;;;5067920;28;20435;-47
2021/10/18 13:49:34;;;;;;;3.20;2.27;;;17.40;98.30;;;;;;5072377;28;20435;-49
2021/10/18 13:52:00;;;;;;;3.57;2.13;;;17.40;98.10;;;;;;5072495;28;20454;-47
2021/10/18 13:54:27;;;;;;;4.00;2.17;;;17.50;98.10;;;;;;5073071;28;20439;-47
2021/10/18 13:56:56;;;;;;;3.60;2.20;;;17.50;97.80;;;;;;5073002;28;20471;-49
2021/10/18 13:59:23;;;;;;;2.17;1.60;;;17.40;98.40;;;;;;5072826;28;20475;-42
2021/10/18 14:01:50;;;;;;;2.90;1.40;;;17.50;98.90;;;;;;5072862;28;20442;-47
2021/10/18 14:04:18;;;;;;;3.17;1.83;;;17.50;98.80;;;;;;5073229;28;20516;-44
2021/10/18 14:06:47;;;;;;;2.00;1.40;;;17.40;99.10;;;;;;5072522;28;20538;-46
2021/10/18 14:09:15;;;;;;;1.67;1.43;;;17.40;99.40;;;;;;5072639;28;20458;-51
2021/10/18 14:11:42;;;;;;;3.33;1.40;;;17.40;99.60;;;;;;5073701;28;20467;-47
2021/10/18 14:14:11;;;;;;;2.47;1.87;;;17.30;99.80;;;;;;5072576;28;20443;-48
2021/10/18 14:16:38;;;;;;;3.13;1.53;;;17.30;99.90;;;;;;5072492;28;20467;-49
2021/10/18 14:19:06;;;;;;;3.27;1.40;;;17.30;99.90;;;;;;5072475;28;20487;-48
2021/10/18 14:21:34;;;;;;;2.10;1.73;;;17.30;99.90;;;;;;5073313;28;20465;-48
2021/10/18 14:24:02;;;;;;;2.63;1.97;;;17.30;99.90;;;;;;5072729;28;20465;-51
2021/10/18 14:26:29;;;;;;;2.30;1.90;;;17.20;99.90;;;;;;5072948;28;20473;-49
2021/10/18 14:28:56;;;;;;;2.30;1.70;;;17.20;99.90;;;;;;5073185;28;20928;-48